Terminal Aerodrome Forecast
Issued by NWS

Home | Current Version | Previous Version | Text Only | Print | Product List | Glossary On
Versions: 1 2 3 4 5 6 7 8 9 10 11 12 13 14 15 16 17
000
FTUS44 KLIX 281729
TAFHUM
TAF
KHUM 281729Z 2818/2918 05010KT P6SM VCSH SCT025 BKN045
      TEMPO 2819/2823 2SM +TSRA BKN025CB
     FM290200 06006KT P6SM FEW040 SCT080 BKN150
     FM290800 VRB06KT P6SM VCSH BKN060 BKN120=

USA.gov is the U.S. government's official web portal to all federal, state and local government web resources and services.